createdAt,value
2023-03-14T00:00:53.868Z,11.90
2023-03-14T00:03:20.973Z,11.90
2023-03-14T00:05:48.015Z,11.90
2023-03-14T00:08:14.964Z,11.90
2023-03-14T00:10:42.078Z,11.80
2023-03-14T00:13:09.142Z,11.80
2023-03-14T00:15:37.566Z,11.80
2023-03-14T00:18:04.696Z,11.80
2023-03-14T00:20:31.773Z,11.80
2023-03-14T00:22:58.666Z,11.80
2023-03-14T00:25:25.591Z,11.80
2023-03-14T00:27:54.984Z,11.80
2023-03-14T00:30:22.059Z,11.70
2023-03-14T00:32:50.422Z,11.70
2023-03-14T00:35:17.799Z,11.70
2023-03-14T00:37:44.622Z,11.70
2023-03-14T00:40:12.370Z,11.70
2023-03-14T00:45:30.189Z,11.70
2023-03-14T00:47:58.347Z,11.80
2023-03-14T00:50:25.701Z,11.80
2023-03-14T00:52:52.684Z,11.80
2023-03-14T00:55:19.539Z,11.80
2023-03-14T00:57:46.448Z,11.80
2023-03-14T01:00:15.603Z,11.80
2023-03-14T01:02:43.041Z,11.90
2023-03-14T01:05:11.491Z,11.80
2023-03-14T01:07:38.570Z,11.80
2023-03-14T01:10:08.450Z,11.90
2023-03-14T01:12:35.605Z,11.80
2023-03-14T01:15:04.016Z,11.80
2023-03-14T01:17:33.081Z,11.80
2023-03-14T01:20:01.509Z,11.80
2023-03-14T01:22:30.444Z,11.80
2023-03-14T01:24:57.505Z,11.90
2023-03-14T01:27:25.167Z,11.80
2023-03-14T01:29:53.057Z,11.90
2023-03-14T01:32:20.033Z,11.90
2023-03-14T01:34:46.899Z,11.90
2023-03-14T01:37:14.299Z,11.90
2023-03-14T01:39:43.212Z,11.90
2023-03-14T01:42:10.652Z,12.00
2023-03-14T01:44:52.566Z,12.00
2023-03-14T01:47:20.736Z,11.90
2023-03-14T01:49:51.347Z,12.00
2023-03-14T01:52:25.886Z,12.00
2023-03-14T01:54:58.190Z,12.00
2023-03-14T01:57:30.732Z,12.10
2023-03-14T02:00:01.114Z,12.00
2023-03-14T02:02:29.902Z,12.00
2023-03-14T02:04:59.054Z,12.00
2023-03-14T02:07:40.637Z,12.00
2023-03-14T02:10:16.698Z,12.00
2023-03-14T02:12:44.569Z,12.00
2023-03-14T02:15:30.479Z,12.10
2023-03-14T02:18:07.538Z,12.10
2023-03-14T02:20:52.815Z,12.00
2023-03-14T02:23:35.049Z,12.00
2023-03-14T02:26:15.516Z,12.10
2023-03-14T02:28:44.272Z,12.10
2023-03-14T02:31:12.176Z,12.10
2023-03-14T02:33:39.777Z,12.00
2023-03-14T02:36:13.113Z,12.00
2023-03-14T02:38:48.601Z,12.00
2023-03-14T02:41:16.023Z,12.00
2023-03-14T02:43:50.721Z,12.00
2023-03-14T02:46:21.226Z,12.00
2023-03-14T02:48:52.953Z,11.90
2023-03-14T02:51:21.847Z,11.90
2023-03-14T02:53:49.421Z,11.90
2023-03-14T02:56:17.647Z,12.00
2023-03-14T02:58:44.998Z,12.00
2023-03-14T03:01:38.009Z,12.00
2023-03-14T03:04:06.236Z,12.00
2023-03-14T03:06:33.365Z,12.00
2023-03-14T03:09:03.418Z,12.10
2023-03-14T03:11:31.120Z,12.10
2023-03-14T03:13:58.072Z,12.10
2023-03-14T03:16:27.409Z,12.10
2023-03-14T03:18:55.836Z,12.10
2023-03-14T03:21:23.022Z,12.20
2023-03-14T03:23:50.936Z,12.20
2023-03-14T03:26:18.010Z,12.10
2023-03-14T03:28:45.077Z,12.10
2023-03-14T03:31:14.322Z,12.20
2023-03-14T03:33:41.358Z,12.10
2023-03-14T03:36:11.430Z,12.30
2023-03-14T03:38:40.072Z,12.10
2023-03-14T03:41:08.204Z,12.20
2023-03-14T03:43:36.723Z,12.10
2023-03-14T03:46:06.864Z,12.20
2023-03-14T03:48:36.207Z,12.20
2023-03-14T03:51:06.302Z,12.20
2023-03-14T03:53:35.667Z,12.30
2023-03-14T03:56:09.330Z,12.20
2023-03-14T03:58:36.584Z,12.30
2023-03-14T04:01:03.880Z,12.40
2023-03-14T04:03:31.141Z,12.40
2023-03-14T04:06:03.163Z,12.40
2023-03-14T04:08:35.554Z,12.40
2023-03-14T04:11:03.820Z,12.30
2023-03-14T04:13:46.150Z,12.40
2023-03-14T04:16:18.209Z,12.30
2023-03-14T04:18:45.229Z,12.30
2023-03-14T04:21:12.414Z,12.20
2023-03-14T04:23:47.132Z,12.20
2023-03-14T04:26:15.292Z,12.20
2023-03-14T04:28:42.478Z,12.20
2023-03-14T04:31:13.897Z,12.10
2023-03-14T04:33:44.135Z,12.20
2023-03-14T04:36:13.327Z,12.10
2023-03-14T04:38:40.724Z,12.20
2023-03-14T04:41:10.034Z,12.20
2023-03-14T04:43:37.134Z,12.20
2023-03-14T04:46:07.731Z,12.10
2023-03-14T04:48:35.264Z,12.10
2023-03-14T04:51:02.517Z,12.10
2023-03-14T04:53:33.250Z,12.00
2023-03-14T04:56:02.922Z,12.10
2023-03-14T04:58:37.821Z,12.00
2023-03-14T05:01:07.475Z,11.80
2023-03-14T05:03:40.877Z,11.70
2023-03-14T05:06:15.254Z,11.60
2023-03-14T05:09:20.878Z,11.50
2023-03-14T05:12:02.057Z,11.60
2023-03-14T05:14:52.992Z,11.50
2023-03-14T05:17:40.166Z,11.50
2023-03-14T05:20:33.821Z,11.30
2023-03-14T05:23:21.377Z,11.20
2023-03-14T05:26:03.166Z,11.20
2023-03-14T05:28:56.988Z,11.10
2023-03-14T05:31:46.745Z,11.10
2023-03-14T05:34:35.509Z,11.00
2023-03-14T05:37:21.316Z,10.90
2023-03-14T05:40:04.404Z,10.90
2023-03-14T05:42:47.971Z,10.90
2023-03-14T05:45:43.975Z,10.70
2023-03-14T05:48:25.648Z,10.70
2023-03-14T05:51:10.295Z,10.70
2023-03-14T05:54:06.319Z,10.70
2023-03-14T05:56:51.773Z,10.60
2023-03-14T05:59:33.269Z,10.70
2023-03-14T06:02:22.242Z,10.70
2023-03-14T06:04:59.931Z,10.60
2023-03-14T06:07:26.909Z,10.60
2023-03-14T06:09:53.881Z,10.60
2023-03-14T06:12:22.075Z,10.60
2023-03-14T06:14:49.092Z,10.60
2023-03-14T06:17:16.600Z,10.70
2023-03-14T06:19:52.638Z,10.60
2023-03-14T06:22:20.990Z,10.60
2023-03-14T06:24:48.180Z,10.70
2023-03-14T06:27:17.126Z,10.70
2023-03-14T06:29:44.327Z,10.70
2023-03-14T06:32:11.194Z,10.90
2023-03-14T06:34:39.155Z,10.90
2023-03-14T06:37:06.518Z,11.00
2023-03-14T06:39:34.909Z,11.10
2023-03-14T06:45:24.790Z,11.00
2023-03-14T06:47:53.048Z,11.00
2023-03-14T06:50:25.487Z,11.10
2023-03-14T06:52:53.270Z,11.00
2023-03-14T06:55:25.428Z,11.00
2023-03-14T06:57:53.699Z,11.10
2023-03-14T07:00:21.936Z,11.20
2023-03-14T07:02:51.274Z,11.40
2023-03-14T07:05:30.924Z,11.40
2023-03-14T07:07:58.178Z,11.50
2023-03-14T07:10:26.811Z,11.60
2023-03-14T07:12:54.138Z,11.70
2023-03-14T07:15:23.659Z,11.70
2023-03-14T07:17:56.314Z,11.80
2023-03-14T07:20:24.288Z,11.90
2023-03-14T07:22:52.188Z,11.90
2023-03-14T07:25:28.814Z,12.00
2023-03-14T07:27:55.719Z,12.10
2023-03-14T07:30:22.909Z,12.30
2023-03-14T07:32:50.581Z,12.60
2023-03-14T07:35:18.266Z,12.60
2023-03-14T07:37:45.359Z,12.40
2023-03-14T07:40:14.037Z,12.20
2023-03-14T07:42:42.692Z,12.00
2023-03-14T07:45:42.555Z,11.90
2023-03-14T07:48:10.100Z,11.80
2023-03-14T07:50:37.142Z,11.90
2023-03-14T07:53:04.024Z,11.90
2023-03-14T07:55:31.059Z,11.90
2023-03-14T07:57:59.326Z,12.00
2023-03-14T08:00:26.869Z,12.00
2023-03-14T08:02:53.858Z,12.00
2023-03-14T08:05:23.916Z,11.90
2023-03-14T08:07:50.838Z,11.90
2023-03-14T08:10:18.136Z,11.90
2023-03-14T08:12:44.957Z,11.90
2023-03-14T08:15:13.362Z,11.70
2023-03-14T08:17:40.295Z,11.90
2023-03-14T08:20:08.324Z,12.10
2023-03-14T08:22:35.354Z,12.30
2023-03-14T08:25:02.377Z,12.50
2023-03-14T08:27:29.291Z,12.70
2023-03-14T08:29:56.387Z,12.80
2023-03-14T08:32:24.639Z,12.90
2023-03-14T08:34:51.624Z,12.70
2023-03-14T08:37:26.245Z,12.50
2023-03-14T08:39:54.529Z,12.50
2023-03-14T08:42:21.692Z,12.50
2023-03-14T08:44:48.818Z,12.50
2023-03-14T08:47:15.784Z,12.60
2023-03-14T08:49:44.087Z,12.70
2023-03-14T08:52:11.100Z,12.90
2023-03-14T08:54:38.046Z,13.10
2023-03-14T08:57:04.856Z,13.10
2023-03-14T08:59:31.759Z,13.10
2023-03-14T09:01:58.648Z,13.40
2023-03-14T09:04:26.035Z,13.70
2023-03-14T09:06:54.459Z,13.80
2023-03-14T09:09:21.477Z,13.80
2023-03-14T09:11:48.304Z,13.70
2023-03-14T09:14:15.159Z,13.70
2023-03-14T09:16:42.094Z,13.50
2023-03-14T09:19:09.112Z,13.30
2023-03-14T09:21:36.171Z,13.20
2023-03-14T09:24:05.442Z,13.10
2023-03-14T09:26:32.531Z,13.30
2023-03-14T09:28:59.347Z,13.30
2023-03-14T09:31:26.454Z,13.30
2023-03-14T09:33:53.451Z,13.10
2023-03-14T09:36:20.593Z,13.30
2023-03-14T09:38:48.152Z,13.20
2023-03-14T09:41:22.466Z,13.10
2023-03-14T09:43:58.114Z,13.90
2023-03-14T09:46:25.321Z,14.30
2023-03-14T09:48:53.057Z,13.70
2023-03-14T09:51:21.716Z,13.10
2023-03-14T09:53:51.946Z,13.00
2023-03-14T09:56:24.028Z,13.00
2023-03-14T09:58:55.974Z,12.90
2023-03-14T10:01:29.381Z,12.60
2023-03-14T10:04:01.728Z,12.30
2023-03-14T10:06:31.605Z,12.10
2023-03-14T10:08:59.033Z,11.90
2023-03-14T10:11:27.417Z,11.70
2023-03-14T10:14:07.882Z,11.60
2023-03-14T10:16:38.440Z,11.60
2023-03-14T10:19:08.616Z,11.30
2023-03-14T10:21:41.313Z,11.00
2023-03-14T10:24:25.057Z,10.70
2023-03-14T10:26:56.478Z,10.50
2023-03-14T10:29:23.621Z,10.40
2023-03-14T10:31:56.405Z,10.30
2023-03-14T10:34:26.696Z,10.20
2023-03-14T10:36:56.932Z,10.00
2023-03-14T10:39:38.491Z,9.90
2023-03-14T10:42:17.921Z,9.70
2023-03-14T10:44:46.810Z,9.60
2023-03-14T10:47:22.828Z,9.70
2023-03-14T10:49:50.810Z,9.80
2023-03-14T10:52:30.900Z,10.00
2023-03-14T10:55:11.091Z,10.00
2023-03-14T10:57:41.938Z,9.70
2023-03-14T11:00:17.108Z,9.80
2023-03-14T11:03:09.744Z,9.80
2023-03-14T11:05:46.603Z,9.80
2023-03-14T11:08:23.470Z,9.80
2023-03-14T11:10:55.678Z,9.90
2023-03-14T11:13:27.196Z,9.90
2023-03-14T11:16:09.810Z,10.00
2023-03-14T11:19:15.704Z,9.80
2023-03-14T11:21:50.998Z,10.10
2023-03-14T11:24:37.687Z,10.50
2023-03-14T11:27:16.835Z,10.50
2023-03-14T11:29:56.454Z,10.70
2023-03-14T11:32:40.257Z,10.70
2023-03-14T11:35:23.478Z,10.90
2023-03-14T11:37:57.834Z,11.10
2023-03-14T11:40:28.508Z,11.10
2023-03-14T11:43:09.642Z,11.10
2023-03-14T11:45:42.084Z,11.20
2023-03-14T11:48:21.753Z,11.10
2023-03-14T11:50:53.945Z,11.00
2023-03-14T11:53:26.697Z,10.90
2023-03-14T11:55:54.251Z,10.80
2023-03-14T11:58:27.124Z,10.80
2023-03-14T12:00:58.488Z,10.60
2023-03-14T12:03:33.810Z,10.50
2023-03-14T12:06:14.717Z,10.40
2023-03-14T12:08:51.355Z,10.50
2023-03-14T12:11:33.191Z,10.70
2023-03-14T12:14:02.294Z,10.90
2023-03-14T12:16:41.078Z,11.20
2023-03-14T12:19:34.352Z,11.30
2023-03-14T12:22:25.922Z,11.00
2023-03-14T12:25:01.189Z,10.80
2023-03-14T12:28:17.037Z,10.70
2023-03-14T12:30:44.064Z,10.50
2023-03-14T12:33:36.227Z,10.50
2023-03-14T12:36:55.094Z,10.40
2023-03-14T12:39:36.583Z,10.30
2023-03-14T12:42:13.520Z,10.10
2023-03-14T12:44:48.656Z,10.00
2023-03-14T12:47:53.050Z,9.90
2023-03-14T12:50:29.886Z,9.90
2023-03-14T12:53:44.980Z,9.90
2023-03-14T12:56:29.090Z,9.70
2023-03-14T12:59:28.810Z,9.60
2023-03-14T13:02:00.907Z,9.60
2023-03-14T13:04:39.575Z,9.80
2023-03-14T13:07:13.936Z,10.00
2023-03-14T13:10:03.648Z,10.30
2023-03-14T13:12:39.511Z,10.40
2023-03-14T13:15:26.693Z,10.60
2023-03-14T13:18:00.687Z,10.90
2023-03-14T13:20:36.381Z,10.70
2023-03-14T13:23:05.190Z,10.80
2023-03-14T13:25:35.595Z,10.90
2023-03-14T13:28:04.872Z,10.90
2023-03-14T13:30:41.621Z,10.90
2023-03-14T13:33:15.874Z,10.90
2023-03-14T13:35:45.722Z,10.90
2023-03-14T13:38:23.691Z,11.00
2023-03-14T13:40:54.557Z,11.00
2023-03-14T13:43:29.581Z,11.00
2023-03-14T13:46:03.733Z,10.90
2023-03-14T13:48:34.356Z,10.90
2023-03-14T13:51:06.381Z,11.00
2023-03-14T13:53:43.767Z,11.10
2023-03-14T13:56:13.048Z,11.10
2023-03-14T13:58:41.634Z,11.40
2023-03-14T14:01:16.449Z,12.50
2023-03-14T14:03:46.460Z,12.40
2023-03-14T14:06:27.320Z,12.00
2023-03-14T14:09:00.039Z,11.60
2023-03-14T14:11:48.908Z,11.40
2023-03-14T14:14:26.309Z,11.40
2023-03-14T14:16:54.459Z,11.50
2023-03-14T14:19:24.288Z,11.30
2023-03-14T14:21:51.962Z,11.30
2023-03-14T14:24:25.614Z,11.10
2023-03-14T14:26:54.510Z,10.90
2023-03-14T14:29:29.165Z,10.60
2023-03-14T14:32:10.395Z,10.50
2023-03-14T14:34:43.050Z,10.80
2023-03-14T14:37:22.753Z,10.70
2023-03-14T14:39:53.479Z,10.60
2023-03-14T14:42:25.476Z,10.70
2023-03-14T14:45:20.684Z,10.60
2023-03-14T14:47:53.163Z,10.50
2023-03-14T14:50:30.721Z,10.50
2023-03-14T14:52:59.478Z,10.40
2023-03-14T14:55:34.816Z,10.40
2023-03-14T14:58:22.394Z,10.30
2023-03-14T15:00:57.390Z,10.20
2023-03-14T15:03:29.373Z,10.30
2023-03-14T15:05:56.380Z,10.40
2023-03-14T15:08:25.526Z,10.60
2023-03-14T15:10:54.346Z,10.80
2023-03-14T15:13:21.566Z,11.00
2023-03-14T15:15:50.165Z,11.20
2023-03-14T15:18:19.722Z,11.50
2023-03-14T15:20:47.026Z,11.60
2023-03-14T15:23:17.030Z,11.70
2023-03-14T15:25:55.148Z,11.60
2023-03-14T15:28:27.630Z,11.50
2023-03-14T15:30:57.794Z,11.30
2023-03-14T15:33:26.367Z,11.10
2023-03-14T15:35:53.710Z,10.90
2023-03-14T15:38:23.074Z,10.70
2023-03-14T15:40:52.939Z,10.60
2023-03-14T15:43:24.096Z,10.50
2023-03-14T15:45:52.496Z,10.30
2023-03-14T15:48:21.831Z,10.20
2023-03-14T15:50:48.739Z,10.10
2023-03-14T15:53:16.054Z,10.00
2023-03-14T15:55:42.861Z,9.80
2023-03-14T15:58:21.259Z,9.80
2023-03-14T16:00:49.640Z,9.90
2023-03-14T16:03:18.049Z,9.90
2023-03-14T16:05:45.373Z,9.80
2023-03-14T16:08:12.283Z,9.70
2023-03-14T16:10:39.149Z,9.60
2023-03-14T16:13:06.148Z,9.40
2023-03-14T16:15:33.010Z,9.30
2023-03-14T16:18:02.437Z,9.10
2023-03-14T16:20:47.181Z,8.90
2023-03-14T16:23:14.737Z,8.80
2023-03-14T16:25:41.661Z,8.50
2023-03-14T16:28:11.328Z,8.30
2023-03-14T16:30:38.634Z,8.10
2023-03-14T16:33:10.112Z,8.00
2023-03-14T16:35:41.420Z,7.80
2023-03-14T16:38:09.597Z,7.70
2023-03-14T16:40:36.713Z,7.60
2023-03-14T16:43:16.729Z,7.60
2023-03-14T16:45:43.568Z,7.50
2023-03-14T16:48:10.570Z,7.60
2023-03-14T16:50:40.985Z,7.40
2023-03-14T16:55:55.213Z,7.20
2023-03-14T16:58:22.778Z,7.30
2023-03-14T17:00:50.092Z,7.20
2023-03-14T17:03:18.252Z,7.20
2023-03-14T17:05:48.566Z,7.10
2023-03-14T17:08:16.179Z,7.00
2023-03-14T17:10:43.374Z,6.90
2023-03-14T17:13:10.575Z,6.80
2023-03-14T17:15:37.655Z,6.70
2023-03-14T17:18:06.160Z,6.60
2023-03-14T17:20:34.004Z,6.50
2023-03-14T17:23:02.196Z,6.50
2023-03-14T17:25:30.183Z,6.40
2023-03-14T17:27:57.267Z,6.30
2023-03-14T17:30:24.414Z,6.30
2023-03-14T17:32:51.573Z,6.30
2023-03-14T17:35:18.632Z,6.30
2023-03-14T17:37:46.198Z,6.20
2023-03-14T17:40:14.899Z,6.10
2023-03-14T17:42:47.314Z,6.20
2023-03-14T17:45:14.364Z,6.10
2023-03-14T17:47:41.538Z,6.00
2023-03-14T17:50:10.561Z,5.90
2023-03-14T17:52:37.526Z,5.90
2023-03-14T17:55:07.365Z,5.80
2023-03-14T17:57:37.103Z,5.70
2023-03-14T18:00:05.475Z,5.60
2023-03-14T18:02:34.911Z,5.60
2023-03-14T18:05:01.897Z,5.50
2023-03-14T18:07:29.170Z,5.40
2023-03-14T18:09:56.442Z,5.50
2023-03-14T18:12:23.340Z,5.40
2023-03-14T18:14:51.915Z,5.30
2023-03-14T18:17:18.854Z,5.20
2023-03-14T18:19:45.730Z,5.20
2023-03-14T18:22:12.730Z,5.20
2023-03-14T18:24:39.703Z,5.20
2023-03-14T18:27:07.318Z,5.20
2023-03-14T18:29:34.232Z,5.10
2023-03-14T18:32:02.638Z,5.10
2023-03-14T18:34:29.610Z,5.10
2023-03-14T18:36:56.621Z,5.00
2023-03-14T18:39:23.748Z,5.00
2023-03-14T18:41:50.893Z,5.10
2023-03-14T18:44:18.181Z,5.00
2023-03-14T18:46:46.972Z,5.00
2023-03-14T18:49:15.531Z,5.00
2023-03-14T18:51:42.596Z,5.20
2023-03-14T18:54:10.995Z,5.10
2023-03-14T18:56:39.247Z,5.00
2023-03-14T18:59:06.792Z,4.90
2023-03-14T19:01:34.844Z,4.80
2023-03-14T19:04:03.458Z,4.70
2023-03-14T19:06:32.804Z,4.70
2023-03-14T19:09:00.498Z,4.60
2023-03-14T19:11:28.022Z,4.60
2023-03-14T19:13:55.669Z,4.50
2023-03-14T19:16:23.068Z,4.50
2023-03-14T19:18:50.226Z,4.50
2023-03-14T19:21:27.985Z,4.50
2023-03-14T19:23:56.795Z,4.40
2023-03-14T19:26:24.345Z,4.40
2023-03-14T19:28:51.909Z,4.40
2023-03-14T19:31:19.379Z,4.30
2023-03-14T19:33:46.632Z,4.30
2023-03-14T19:36:23.161Z,4.50
2023-03-14T19:38:52.070Z,4.50
2023-03-14T19:41:22.670Z,4.50
2023-03-14T19:43:51.044Z,4.50
2023-03-14T19:46:18.385Z,4.40
2023-03-14T19:52:01.636Z,4.40
2023-03-14T19:54:28.673Z,4.50
2023-03-14T19:56:57.049Z,4.40
2023-03-14T19:59:23.996Z,4.50
2023-03-14T20:01:50.885Z,4.40
2023-03-14T20:04:17.918Z,4.40
2023-03-14T20:06:44.986Z,4.40
2023-03-14T20:09:11.942Z,4.30
2023-03-14T20:11:38.871Z,4.30
2023-03-14T20:14:07.670Z,4.30
2023-03-14T20:16:34.833Z,4.30
2023-03-14T20:19:04.538Z,4.30
2023-03-14T20:21:31.425Z,4.30
2023-03-14T20:23:58.647Z,4.30
2023-03-14T20:26:26.028Z,4.30
2023-03-14T20:28:53.124Z,4.30
2023-03-14T20:31:22.393Z,4.30
2023-03-14T20:33:51.417Z,4.30
2023-03-14T20:36:19.142Z,4.30
2023-03-14T20:38:46.123Z,4.30
2023-03-14T20:41:13.246Z,4.20
2023-03-14T20:43:40.125Z,4.10
2023-03-14T20:46:08.353Z,4.10
2023-03-14T20:48:37.001Z,4.10
2023-03-14T20:51:04.276Z,4.00
2023-03-14T20:53:31.522Z,4.00
2023-03-14T20:55:58.551Z,4.00
2023-03-14T20:58:26.826Z,4.00
2023-03-14T21:00:56.816Z,4.00
2023-03-14T21:03:25.511Z,3.90
2023-03-14T21:05:54.169Z,4.00
2023-03-14T21:08:23.944Z,3.90
2023-03-14T21:10:53.330Z,3.80
2023-03-14T21:13:20.917Z,3.80
2023-03-14T21:15:47.963Z,3.80
2023-03-14T21:18:15.034Z,3.80
2023-03-14T21:20:43.217Z,3.90
2023-03-14T21:23:12.144Z,3.90
2023-03-14T21:25:41.862Z,3.90
2023-03-14T21:28:10.080Z,3.90
2023-03-14T21:30:37.319Z,4.00
2023-03-14T21:33:04.602Z,3.90
2023-03-14T21:35:31.520Z,3.70
2023-03-14T21:37:58.655Z,3.70
2023-03-14T21:40:26.965Z,3.60
2023-03-14T21:42:54.294Z,3.60
2023-03-14T21:45:25.679Z,3.60
2023-03-14T21:47:52.746Z,3.50
2023-03-14T21:50:20.266Z,3.50
2023-03-14T21:52:47.198Z,3.50
2023-03-14T21:55:14.461Z,3.50
2023-03-14T21:57:43.277Z,3.50
2023-03-14T22:00:12.260Z,3.40
2023-03-14T22:02:40.634Z,3.40
2023-03-14T22:05:10.656Z,3.40
2023-03-14T22:07:37.950Z,3.40
2023-03-14T22:10:05.761Z,3.40
2023-03-14T22:12:32.594Z,3.30
2023-03-14T22:15:00.984Z,3.30
2023-03-14T22:17:28.002Z,3.30
2023-03-14T22:19:54.983Z,3.30
2023-03-14T22:22:21.858Z,3.30
2023-03-14T22:24:49.124Z,3.30
2023-03-14T22:27:16.156Z,3.30
2023-03-14T22:29:43.355Z,3.30
2023-03-14T22:32:12.606Z,3.20
2023-03-14T22:34:39.518Z,3.20
2023-03-14T22:37:07.612Z,3.20
2023-03-14T22:39:35.244Z,3.20
2023-03-14T22:42:02.176Z,3.20
2023-03-14T22:44:54.305Z,3.20
2023-03-14T22:47:22.906Z,3.20
2023-03-14T22:49:49.854Z,3.20
2023-03-14T22:52:16.893Z,3.20
2023-03-14T22:54:44.207Z,3.20
2023-03-14T22:57:11.479Z,3.00
2023-03-14T22:59:38.454Z,3.00
2023-03-14T23:02:05.800Z,2.90
2023-03-14T23:04:34.298Z,3.00
2023-03-14T23:07:01.544Z,2.90
2023-03-14T23:09:28.455Z,3.00
2023-03-14T23:11:55.369Z,2.90
2023-03-14T23:14:22.544Z,2.90
2023-03-14T23:16:49.862Z,2.90
2023-03-14T23:19:17.031Z,3.00
2023-03-14T23:21:45.438Z,3.00
2023-03-14T23:24:12.242Z,3.00
2023-03-14T23:26:39.098Z,3.00
2023-03-14T23:29:06.335Z,3.00
2023-03-14T23:31:33.817Z,3.00
2023-03-14T23:34:00.987Z,3.00
2023-03-14T23:36:28.112Z,3.00
2023-03-14T23:38:56.799Z,3.00
2023-03-14T23:41:23.927Z,3.00
2023-03-14T23:43:50.806Z,3.00
2023-03-14T23:46:17.871Z,3.00
2023-03-14T23:48:44.820Z,2.90
2023-03-14T23:51:12.404Z,2.90
2023-03-14T23:53:40.130Z,2.90
2023-03-14T23:56:10.909Z,2.90
2023-03-14T23:58:37.900Z,2.80
